sensor_id;sensor_type;location;lat;lon;timestamp;temperature;humidity
15983;DHT22;14442;50.196;8.096;2022-11-15T00:00:55;22.70;51.60
15983;DHT22;14442;50.196;8.096;2022-11-15T00:03:23;22.70;51.50
15983;DHT22;14442;50.196;8.096;2022-11-15T00:05:52;22.80;51.60
15983;DHT22;14442;50.196;8.096;2022-11-15T00:08:18;22.80;51.60
15983;DHT22;14442;50.196;8.096;2022-11-15T00:10:54;22.80;51.60
15983;DHT22;14442;50.196;8.096;2022-11-15T00:13:21;22.80;51.50
15983;DHT22;14442;50.196;8.096;2022-11-15T00:15:47;22.80;52.20
15983;DHT22;14442;50.196;8.096;2022-11-15T00:18:14;22.80;51.50
15983;DHT22;14442;50.196;8.096;2022-11-15T00:20:41;22.80;51.50
15983;DHT22;14442;50.196;8.096;2022-11-15T00:23:09;22.90;51.60
15983;DHT22;14442;50.196;8.096;2022-11-15T00:25:36;22.80;51.80
15983;DHT22;14442;50.196;8.096;2022-11-15T00:28:03;22.80;51.50
15983;DHT22;14442;50.196;8.096;2022-11-15T00:30:30;22.80;51.50
15983;DHT22;14442;50.196;8.096;2022-11-15T00:32:56;22.80;51.50
15983;DHT22;14442;50.196;8.096;2022-11-15T00:35:27;22.90;51.50
15983;DHT22;14442;50.196;8.096;2022-11-15T00:37:54;22.90;51.60
15983;DHT22;14442;50.196;8.096;2022-11-15T00:40:22;22.90;51.70
15983;DHT22;14442;50.196;8.096;2022-11-15T00:42:48;22.90;51.80
15983;DHT22;14442;50.196;8.096;2022-11-15T00:45:15;22.90;51.80
15983;DHT22;14442;50.196;8.096;2022-11-15T00:47:44;22.80;51.60
15983;DHT22;14442;50.196;8.096;2022-11-15T00:50:10;22.90;51.80
15983;DHT22;14442;50.196;8.096;2022-11-15T00:52:37;22.90;51.80
15983;DHT22;14442;50.196;8.096;2022-11-15T00:55:06;22.90;52.00
15983;DHT22;14442;50.196;8.096;2022-11-15T00:57:34;22.90;52.00
15983;DHT22;14442;50.196;8.096;2022-11-15T01:00:01;22.90;51.90
15983;DHT22;14442;50.196;8.096;2022-11-15T01:02:27;22.90;51.90
15983;DHT22;14442;50.196;8.096;2022-11-15T01:04:54;22.90;52.00
15983;DHT22;14442;50.196;8.096;2022-11-15T01:07:21;22.90;52.00
15983;DHT22;14442;50.196;8.096;2022-11-15T01:09:47;22.90;52.00
15983;DHT22;14442;50.196;8.096;2022-11-15T01:12:14;22.90;52.50
15983;DHT22;14442;50.196;8.096;2022-11-15T01:14:42;22.90;52.00
15983;DHT22;14442;50.196;8.096;2022-11-15T01:17:09;22.80;52.00
15983;DHT22;14442;50.196;8.096;2022-11-15T01:19:35;22.70;51.60
15983;DHT22;14442;50.196;8.096;2022-11-15T01:22:02;22.70;51.40
15983;DHT22;14442;50.196;8.096;2022-11-15T01:24:28;22.70;51.40
15983;DHT22;14442;50.196;8.096;2022-11-15T01:26:55;22.70;51.50
15983;DHT22;14442;50.196;8.096;2022-11-15T01:29:22;22.70;51.40
15983;DHT22;14442;50.196;8.096;2022-11-15T01:31:50;22.70;51.30
15983;DHT22;14442;50.196;8.096;2022-11-15T01:34:19;22.70;51.40
15983;DHT22;14442;50.196;8.096;2022-11-15T01:36:45;22.70;51.30
15983;DHT22;14442;50.196;8.096;2022-11-15T01:39:12;22.70;51.20
15983;DHT22;14442;50.196;8.096;2022-11-15T01:41:39;22.70;51.20
15983;DHT22;14442;50.196;8.096;2022-11-15T01:47:19;22.70;51.20
15983;DHT22;14442;50.196;8.096;2022-11-15T01:49:52;22.70;51.20
15983;DHT22;14442;50.196;8.096;2022-11-15T01:52:22;22.60;51.10
15983;DHT22;14442;50.196;8.096;2022-11-15T01:54:53;22.70;51.20
15983;DHT22;14442;50.196;8.096;2022-11-15T01:57:21;22.70;51.20
15983;DHT22;14442;50.196;8.096;2022-11-15T01:59:48;22.60;51.10
15983;DHT22;14442;50.196;8.096;2022-11-15T02:02:16;22.60;51.20
15983;DHT22;14442;50.196;8.096;2022-11-15T02:04:45;22.60;51.10
15983;DHT22;14442;50.196;8.096;2022-11-15T02:07:14;22.60;51.10
15983;DHT22;14442;50.196;8.096;2022-11-15T02:09:42;22.60;51.20
15983;DHT22;14442;50.196;8.096;2022-11-15T02:12:10;22.60;51.20
15983;DHT22;14442;50.196;8.096;2022-11-15T02:14:39;22.60;51.20
15983;DHT22;14442;50.196;8.096;2022-11-15T02:17:16;22.60;51.20
15983;DHT22;14442;50.196;8.096;2022-11-15T02:22:57;22.60;51.20
15983;DHT22;14442;50.196;8.096;2022-11-15T02:25:38;22.60;51.20
15983;DHT22;14442;50.196;8.096;2022-11-15T02:28:37;22.60;51.20
15983;DHT22;14442;50.196;8.096;2022-11-15T02:31:12;22.50;51.10
15983;DHT22;14442;50.196;8.096;2022-11-15T02:33:44;22.50;51.20
15983;DHT22;14442;50.196;8.096;2022-11-15T02:36:24;22.50;51.20
15983;DHT22;14442;50.196;8.096;2022-11-15T02:38:58;22.50;51.20
15983;DHT22;14442;50.196;8.096;2022-11-15T02:41:31;22.50;51.20
15983;DHT22;14442;50.196;8.096;2022-11-15T02:44:04;22.50;51.20
15983;DHT22;14442;50.196;8.096;2022-11-15T02:46:37;22.50;51.20
15983;DHT22;14442;50.196;8.096;2022-11-15T02:49:24;22.50;51.20
15983;DHT22;14442;50.196;8.096;2022-11-15T02:51:52;22.50;51.20
15983;DHT22;14442;50.196;8.096;2022-11-15T02:54:22;22.50;51.20
15983;DHT22;14442;50.196;8.096;2022-11-15T02:56:49;22.50;51.20
15983;DHT22;14442;50.196;8.096;2022-11-15T02:59:36;22.50;51.20
15983;DHT22;14442;50.196;8.096;2022-11-15T03:02:18;22.50;51.20
15983;DHT22;14442;50.196;8.096;2022-11-15T03:04:53;22.50;51.20
15983;DHT22;14442;50.196;8.096;2022-11-15T03:07:26;22.40;51.10
15983;DHT22;14442;50.196;8.096;2022-11-15T03:10:02;22.40;51.20
15983;DHT22;14442;50.196;8.096;2022-11-15T03:12:36;22.50;51.20
15983;DHT22;14442;50.196;8.096;2022-11-15T03:15:06;22.40;51.20
15983;DHT22;14442;50.196;8.096;2022-11-15T03:17:38;22.40;51.20
15983;DHT22;14442;50.196;8.096;2022-11-15T03:20:08;22.40;51.20
15983;DHT22;14442;50.196;8.096;2022-11-15T03:22:38;22.40;51.20
15983;DHT22;14442;50.196;8.096;2022-11-15T03:25:07;22.40;51.20
15983;DHT22;14442;50.196;8.096;2022-11-15T03:27:37;22.40;51.20
15983;DHT22;14442;50.196;8.096;2022-11-15T03:30:07;22.40;51.20
15983;DHT22;14442;50.196;8.096;2022-11-15T03:32:39;22.40;51.20
15983;DHT22;14442;50.196;8.096;2022-11-15T03:35:08;22.40;51.20
15983;DHT22;14442;50.196;8.096;2022-11-15T03:37:40;22.40;51.20
15983;DHT22;14442;50.196;8.096;2022-11-15T03:40:08;22.40;51.30
15983;DHT22;14442;50.196;8.096;2022-11-15T03:42:39;22.40;51.30
15983;DHT22;14442;50.196;8.096;2022-11-15T03:45:12;22.30;51.20
15983;DHT22;14442;50.196;8.096;2022-11-15T03:47:46;22.30;51.30
15983;DHT22;14442;50.196;8.096;2022-11-15T03:50:17;22.30;51.30
15983;DHT22;14442;50.196;8.096;2022-11-15T03:52:45;22.30;51.30
15983;DHT22;14442;50.196;8.096;2022-11-15T03:55:15;22.30;51.40
15983;DHT22;14442;50.196;8.096;2022-11-15T03:57:42;22.30;51.40
15983;DHT22;14442;50.196;8.096;2022-11-15T04:00:10;22.30;51.40
15983;DHT22;14442;50.196;8.096;2022-11-15T04:02:37;22.30;51.40
15983;DHT22;14442;50.196;8.096;2022-11-15T04:05:06;22.20;51.30
15983;DHT22;14442;50.196;8.096;2022-11-15T04:07:33;22.20;51.40
15983;DHT22;14442;50.196;8.096;2022-11-15T04:09:59;22.20;51.40
15983;DHT22;14442;50.196;8.096;2022-11-15T04:12:29;22.20;51.40
15983;DHT22;14442;50.196;8.096;2022-11-15T04:14:59;22.20;51.40
15983;DHT22;14442;50.196;8.096;2022-11-15T04:17:37;22.20;51.50
15983;DHT22;14442;50.196;8.096;2022-11-15T04:20:07;22.20;51.50
15983;DHT22;14442;50.196;8.096;2022-11-15T04:22:53;22.10;51.40
15983;DHT22;14442;50.196;8.096;2022-11-15T04:25:37;22.20;51.50
15983;DHT22;14442;50.196;8.096;2022-11-15T04:28:04;22.20;51.50
15983;DHT22;14442;50.196;8.096;2022-11-15T04:30:31;22.10;51.50
15983;DHT22;14442;50.196;8.096;2022-11-15T04:32:57;22.10;51.50
15983;DHT22;14442;50.196;8.096;2022-11-15T04:35:25;22.10;51.50
15983;DHT22;14442;50.196;8.096;2022-11-15T04:37:51;22.10;51.50
15983;DHT22;14442;50.196;8.096;2022-11-15T04:40:18;22.00;51.50
15983;DHT22;14442;50.196;8.096;2022-11-15T04:42:45;22.10;51.50
15983;DHT22;14442;50.196;8.096;2022-11-15T04:45:11;22.10;51.60
15983;DHT22;14442;50.196;8.096;2022-11-15T04:47:38;22.00;51.50
15983;DHT22;14442;50.196;8.096;2022-11-15T04:50:06;22.00;51.50
15983;DHT22;14442;50.196;8.096;2022-11-15T04:52:34;22.00;51.50
15983;DHT22;14442;50.196;8.096;2022-11-15T04:55:00;22.00;51.50
15983;DHT22;14442;50.196;8.096;2022-11-15T04:57:27;22.00;51.50
15983;DHT22;14442;50.196;8.096;2022-11-15T04:59:54;21.90;51.50
15983;DHT22;14442;50.196;8.096;2022-11-15T05:02:20;22.00;51.60
15983;DHT22;14442;50.196;8.096;2022-11-15T05:04:47;22.00;51.50
15983;DHT22;14442;50.196;8.096;2022-11-15T05:07:13;21.90;51.50
15983;DHT22;14442;50.196;8.096;2022-11-15T05:09:41;22.00;51.60
15983;DHT22;14442;50.196;8.096;2022-11-15T05:12:07;21.90;51.60
15983;DHT22;14442;50.196;8.096;2022-11-15T05:14:34;21.90;51.60
15983;DHT22;14442;50.196;8.096;2022-11-15T05:17:00;21.90;51.50
15983;DHT22;14442;50.196;8.096;2022-11-15T05:19:27;21.90;51.60
15983;DHT22;14442;50.196;8.096;2022-11-15T05:21:54;21.80;51.50
15983;DHT22;14442;50.196;8.096;2022-11-15T05:24:20;21.90;51.60
15983;DHT22;14442;50.196;8.096;2022-11-15T05:26:48;21.80;51.60
15983;DHT22;14442;50.196;8.096;2022-11-15T05:29:15;21.90;51.70
15983;DHT22;14442;50.196;8.096;2022-11-15T05:31:42;21.80;51.60
15983;DHT22;14442;50.196;8.096;2022-11-15T05:34:09;21.80;51.70
15983;DHT22;14442;50.196;8.096;2022-11-15T05:36:38;21.80;51.70
15983;DHT22;14442;50.196;8.096;2022-11-15T05:39:07;21.80;51.70
15983;DHT22;14442;50.196;8.096;2022-11-15T05:41:38;21.80;51.60
15983;DHT22;14442;50.196;8.096;2022-11-15T05:44:09;21.80;51.60
15983;DHT22;14442;50.196;8.096;2022-11-15T05:46:37;21.80;51.60
15983;DHT22;14442;50.196;8.096;2022-11-15T05:49:08;21.80;51.60
15983;DHT22;14442;50.196;8.096;2022-11-15T05:51:35;21.70;51.60
15983;DHT22;14442;50.196;8.096;2022-11-15T05:54:02;21.80;51.70
15983;DHT22;14442;50.196;8.096;2022-11-15T05:56:30;21.70;51.60
15983;DHT22;14442;50.196;8.096;2022-11-15T05:58:57;21.70;51.70
15983;DHT22;14442;50.196;8.096;2022-11-15T06:01:26;21.70;51.70
15983;DHT22;14442;50.196;8.096;2022-11-15T06:03:53;21.70;51.70
15983;DHT22;14442;50.196;8.096;2022-11-15T06:06:20;21.70;51.70
15983;DHT22;14442;50.196;8.096;2022-11-15T06:08:47;21.70;51.70
15983;DHT22;14442;50.196;8.096;2022-11-15T06:11:14;21.70;51.60
15983;DHT22;14442;50.196;8.096;2022-11-15T06:13:40;21.80;51.50
15983;DHT22;14442;50.196;8.096;2022-11-15T06:16:07;21.90;51.40
15983;DHT22;14442;50.196;8.096;2022-11-15T06:18:35;21.90;51.30
15983;DHT22;14442;50.196;8.096;2022-11-15T06:21:03;21.90;51.30
15983;DHT22;14442;50.196;8.096;2022-11-15T06:23:32;21.90;51.20
15983;DHT22;14442;50.196;8.096;2022-11-15T06:25:59;22.00;51.20
15983;DHT22;14442;50.196;8.096;2022-11-15T06:28:28;22.00;51.20
15983;DHT22;14442;50.196;8.096;2022-11-15T06:30:55;22.00;51.20
15983;DHT22;14442;50.196;8.096;2022-11-15T06:33:22;22.00;51.10
15983;DHT22;14442;50.196;8.096;2022-11-15T06:35:50;22.00;51.10
15983;DHT22;14442;50.196;8.096;2022-11-15T06:38:17;22.00;51.10
15983;DHT22;14442;50.196;8.096;2022-11-15T06:40:44;22.00;51.00
15983;DHT22;14442;50.196;8.096;2022-11-15T06:43:10;22.10;51.10
15983;DHT22;14442;50.196;8.096;2022-11-15T06:45:37;22.10;51.10
15983;DHT22;14442;50.196;8.096;2022-11-15T06:48:04;22.10;51.00
15983;DHT22;14442;50.196;8.096;2022-11-15T06:50:31;22.10;51.00
15983;DHT22;14442;50.196;8.096;2022-11-15T06:53:02;22.20;51.00
15983;DHT22;14442;50.196;8.096;2022-11-15T06:55:29;22.10;50.90
15983;DHT22;14442;50.196;8.096;2022-11-15T06:57:56;22.20;51.00
15983;DHT22;14442;50.196;8.096;2022-11-15T07:00:22;22.20;51.00
15983;DHT22;14442;50.196;8.096;2022-11-15T07:02:50;22.20;51.00
15983;DHT22;14442;50.196;8.096;2022-11-15T07:05:17;22.30;51.00
15983;DHT22;14442;50.196;8.096;2022-11-15T07:07:51;22.30;50.90
15983;DHT22;14442;50.196;8.096;2022-11-15T07:10:19;22.30;50.90
15983;DHT22;14442;50.196;8.096;2022-11-15T07:12:47;22.30;50.90
15983;DHT22;14442;50.196;8.096;2022-11-15T07:15:14;22.30;50.90
15983;DHT22;14442;50.196;8.096;2022-11-15T07:17:41;22.40;50.90
15983;DHT22;14442;50.196;8.096;2022-11-15T07:20:08;22.40;50.90
15983;DHT22;14442;50.196;8.096;2022-11-15T07:22:35;22.40;51.00
15983;DHT22;14442;50.196;8.096;2022-11-15T07:25:02;22.40;50.90
15983;DHT22;14442;50.196;8.096;2022-11-15T07:27:30;22.40;50.90
15983;DHT22;14442;50.196;8.096;2022-11-15T07:29:57;22.40;50.90
15983;DHT22;14442;50.196;8.096;2022-11-15T07:32:23;22.50;51.00
15983;DHT22;14442;50.196;8.096;2022-11-15T07:34:50;22.50;51.00
15983;DHT22;14442;50.196;8.096;2022-11-15T07:37:17;22.50;51.00
15983;DHT22;14442;50.196;8.096;2022-11-15T07:39:43;22.50;51.00
15983;DHT22;14442;50.196;8.096;2022-11-15T07:42:10;22.50;51.00
15983;DHT22;14442;50.196;8.096;2022-11-15T07:44:56;22.50;51.00
15983;DHT22;14442;50.196;8.096;2022-11-15T07:47:22;22.50;51.00
15983;DHT22;14442;50.196;8.096;2022-11-15T07:49:49;22.50;51.00
15983;DHT22;14442;50.196;8.096;2022-11-15T07:52:16;22.50;51.00
15983;DHT22;14442;50.196;8.096;2022-11-15T07:54:43;22.50;51.00
15983;DHT22;14442;50.196;8.096;2022-11-15T07:57:09;22.50;51.00
15983;DHT22;14442;50.196;8.096;2022-11-15T07:59:36;22.50;51.70
15983;DHT22;14442;50.196;8.096;2022-11-15T08:02:04;22.50;51.00
15983;DHT22;14442;50.196;8.096;2022-11-15T08:04:31;22.50;51.00
15983;DHT22;14442;50.196;8.096;2022-11-15T08:06:58;22.50;51.00
15983;DHT22;14442;50.196;8.096;2022-11-15T08:09:24;22.50;51.10
15983;DHT22;14442;50.196;8.096;2022-11-15T08:11:51;22.50;51.10
15983;DHT22;14442;50.196;8.096;2022-11-15T08:14:18;22.50;51.10
15983;DHT22;14442;50.196;8.096;2022-11-15T08:16:46;22.50;51.10
15983;DHT22;14442;50.196;8.096;2022-11-15T08:19:14;22.50;51.10
15983;DHT22;14442;50.196;8.096;2022-11-15T08:21:41;22.50;51.20
15983;DHT22;14442;50.196;8.096;2022-11-15T08:24:09;22.50;51.20
15983;DHT22;14442;50.196;8.096;2022-11-15T08:26:36;22.50;51.20
15983;DHT22;14442;50.196;8.096;2022-11-15T08:29:03;22.50;51.20
15983;DHT22;14442;50.196;8.096;2022-11-15T08:31:30;22.50;51.20
15983;DHT22;14442;50.196;8.096;2022-11-15T08:33:56;22.50;51.20
15983;DHT22;14442;50.196;8.096;2022-11-15T08:36:24;22.50;51.30
15983;DHT22;14442;50.196;8.096;2022-11-15T08:38:51;22.50;51.30
15983;DHT22;14442;50.196;8.096;2022-11-15T08:41:24;22.50;51.20
15983;DHT22;14442;50.196;8.096;2022-11-15T08:43:52;22.50;51.20
15983;DHT22;14442;50.196;8.096;2022-11-15T08:46:18;22.50;51.20
15983;DHT22;14442;50.196;8.096;2022-11-15T08:48:45;22.60;51.30
15983;DHT22;14442;50.196;8.096;2022-11-15T08:51:11;22.50;51.30
15983;DHT22;14442;50.196;8.096;2022-11-15T08:53:40;22.50;51.40
15983;DHT22;14442;50.196;8.096;2022-11-15T08:56:07;22.50;51.50
15983;DHT22;14442;50.196;8.096;2022-11-15T08:58:34;22.50;51.60
15983;DHT22;14442;50.196;8.096;2022-11-15T09:01:01;22.50;51.70
15983;DHT22;14442;50.196;8.096;2022-11-15T09:03:28;22.40;51.70
15983;DHT22;14442;50.196;8.096;2022-11-15T09:05:55;22.40;52.40
15983;DHT22;14442;50.196;8.096;2022-11-15T09:08:22;22.40;51.80
15983;DHT22;14442;50.196;8.096;2022-11-15T09:10:50;22.50;52.00
15983;DHT22;14442;50.196;8.096;2022-11-15T09:13:17;22.50;52.10
15983;DHT22;14442;50.196;8.096;2022-11-15T09:15:44;22.50;52.10
15983;DHT22;14442;50.196;8.096;2022-11-15T09:18:10;22.50;52.30
15983;DHT22;14442;50.196;8.096;2022-11-15T09:20:37;22.50;52.40
15983;DHT22;14442;50.196;8.096;2022-11-15T09:23:04;22.50;52.50
15983;DHT22;14442;50.196;8.096;2022-11-15T09:25:32;22.50;52.50
15983;DHT22;14442;50.196;8.096;2022-11-15T09:28:00;22.50;52.60
15983;DHT22;14442;50.196;8.096;2022-11-15T09:30:26;22.50;52.70
15983;DHT22;14442;50.196;8.096;2022-11-15T09:32:53;22.50;52.60
15983;DHT22;14442;50.196;8.096;2022-11-15T09:35:20;22.50;52.60
15983;DHT22;14442;50.196;8.096;2022-11-15T09:37:47;22.50;52.80
15983;DHT22;14442;50.196;8.096;2022-11-15T09:40:14;22.50;52.70
15983;DHT22;14442;50.196;8.096;2022-11-15T09:42:54;22.50;52.60
15983;DHT22;14442;50.196;8.096;2022-11-15T09:45:30;22.50;52.60
15983;DHT22;14442;50.196;8.096;2022-11-15T09:50:58;22.50;52.40
15983;DHT22;14442;50.196;8.096;2022-11-15T09:53:42;22.60;52.50
15983;DHT22;14442;50.196;8.096;2022-11-15T09:56:16;22.60;52.50
15983;DHT22;14442;50.196;8.096;2022-11-15T09:58:48;22.60;52.50
15983;DHT22;14442;50.196;8.096;2022-11-15T10:01:28;22.60;52.40
15983;DHT22;14442;50.196;8.096;2022-11-15T10:03:58;22.70;52.50
15983;DHT22;14442;50.196;8.096;2022-11-15T10:06:26;22.60;52.50
15983;DHT22;14442;50.196;8.096;2022-11-15T10:08:58;22.40;52.50
15983;DHT22;14442;50.196;8.096;2022-11-15T10:11:32;22.40;52.20
15983;DHT22;14442;50.196;8.096;2022-11-15T10:14:02;22.60;52.00
15983;DHT22;14442;50.196;8.096;2022-11-15T10:17:05;22.70;51.90
15983;DHT22;14442;50.196;8.096;2022-11-15T10:19:38;22.80;52.00
15983;DHT22;14442;50.196;8.096;2022-11-15T10:22:20;22.80;51.80
15983;DHT22;14442;50.196;8.096;2022-11-15T10:24:50;22.90;51.80
15983;DHT22;14442;50.196;8.096;2022-11-15T10:27:19;22.90;51.80
15983;DHT22;14442;50.196;8.096;2022-11-15T10:29:47;22.90;51.80
15983;DHT22;14442;50.196;8.096;2022-11-15T10:32:17;23.00;52.20
15983;DHT22;14442;50.196;8.096;2022-11-15T10:34:45;22.90;52.30
15983;DHT22;14442;50.196;8.096;2022-11-15T10:37:11;22.90;52.30
15983;DHT22;14442;50.196;8.096;2022-11-15T10:39:38;22.80;52.10
15983;DHT22;14442;50.196;8.096;2022-11-15T10:42:16;22.90;52.20
15983;DHT22;14442;50.196;8.096;2022-11-15T10:44:44;22.80;52.10
15983;DHT22;14442;50.196;8.096;2022-11-15T10:47:27;22.90;52.20
15983;DHT22;14442;50.196;8.096;2022-11-15T10:50:00;22.90;52.20
15983;DHT22;14442;50.196;8.096;2022-11-15T10:52:28;22.90;52.10
15983;DHT22;14442;50.196;8.096;2022-11-15T10:55:00;22.90;52.10
15983;DHT22;14442;50.196;8.096;2022-11-15T10:57:30;22.90;52.10
15983;DHT22;14442;50.196;8.096;2022-11-15T11:00:00;22.90;52.10
15983;DHT22;14442;50.196;8.096;2022-11-15T11:02:31;22.90;52.00
15983;DHT22;14442;50.196;8.096;2022-11-15T11:04:58;22.90;52.10
15983;DHT22;14442;50.196;8.096;2022-11-15T11:07:27;23.00;52.10
15983;DHT22;14442;50.196;8.096;2022-11-15T11:09:59;22.90;52.00
15983;DHT22;14442;50.196;8.096;2022-11-15T11:12:28;23.00;52.10
15983;DHT22;14442;50.196;8.096;2022-11-15T11:14:57;23.00;52.10
15983;DHT22;14442;50.196;8.096;2022-11-15T11:17:34;23.00;52.00
15983;DHT22;14442;50.196;8.096;2022-11-15T11:20:10;23.00;52.00
15983;DHT22;14442;50.196;8.096;2022-11-15T11:22:42;23.00;52.00
15983;DHT22;14442;50.196;8.096;2022-11-15T11:25:29;23.00;52.00
15983;DHT22;14442;50.196;8.096;2022-11-15T11:28:05;23.00;52.10
15983;DHT22;14442;50.196;8.096;2022-11-15T11:30:47;23.00;52.00
15983;DHT22;14442;50.196;8.096;2022-11-15T11:33:20;23.00;52.10
15983;DHT22;14442;50.196;8.096;2022-11-15T11:35:55;23.00;52.10
15983;DHT22;14442;50.196;8.096;2022-11-15T11:38:38;23.00;52.10
15983;DHT22;14442;50.196;8.096;2022-11-15T11:41:13;23.00;52.00
15983;DHT22;14442;50.196;8.096;2022-11-15T11:43:48;23.00;52.10
15983;DHT22;14442;50.196;8.096;2022-11-15T11:49:10;23.10;52.00
15983;DHT22;14442;50.196;8.096;2022-11-15T11:51:41;23.10;51.90
15983;DHT22;14442;50.196;8.096;2022-11-15T11:54:13;23.20;51.90
15983;DHT22;14442;50.196;8.096;2022-11-15T11:56:43;23.20;52.00
15983;DHT22;14442;50.196;8.096;2022-11-15T11:59:17;23.20;52.80
15983;DHT22;14442;50.196;8.096;2022-11-15T12:01:45;23.30;53.20
15983;DHT22;14442;50.196;8.096;2022-11-15T12:04:18;23.20;53.10
15983;DHT22;14442;50.196;8.096;2022-11-15T12:06:49;23.20;53.20
15983;DHT22;14442;50.196;8.096;2022-11-15T12:09:22;23.30;53.50
15983;DHT22;14442;50.196;8.096;2022-11-15T12:12:02;23.30;53.50
15983;DHT22;14442;50.196;8.096;2022-11-15T12:14:34;23.30;53.50
15983;DHT22;14442;50.196;8.096;2022-11-15T12:17:02;23.30;53.60
15983;DHT22;14442;50.196;8.096;2022-11-15T12:19:30;23.30;53.70
15983;DHT22;14442;50.196;8.096;2022-11-15T12:22:01;23.30;53.80
15983;DHT22;14442;50.196;8.096;2022-11-15T12:24:34;23.30;54.00
15983;DHT22;14442;50.196;8.096;2022-11-15T12:27:05;23.30;54.20
15983;DHT22;14442;50.196;8.096;2022-11-15T12:29:37;23.30;54.20
15983;DHT22;14442;50.196;8.096;2022-11-15T12:32:10;23.30;54.50
15983;DHT22;14442;50.196;8.096;2022-11-15T12:34:47;23.30;54.50
15983;DHT22;14442;50.196;8.096;2022-11-15T12:37:34;23.30;54.40
15983;DHT22;14442;50.196;8.096;2022-11-15T12:40:20;23.30;54.50
15983;DHT22;14442;50.196;8.096;2022-11-15T12:46:05;23.20;54.70
15983;DHT22;14442;50.196;8.096;2022-11-15T12:48:58;23.30;54.70
15983;DHT22;14442;50.196;8.096;2022-11-15T12:58:39;23.30;55.00
15983;DHT22;14442;50.196;8.096;2022-11-15T13:01:07;23.30;55.20
15983;DHT22;14442;50.196;8.096;2022-11-15T13:03:34;23.30;55.20
15983;DHT22;14442;50.196;8.096;2022-11-15T13:06:36;23.30;55.20
15983;DHT22;14442;50.196;8.096;2022-11-15T13:09:03;23.30;55.40
15983;DHT22;14442;50.196;8.096;2022-11-15T13:11:51;23.30;55.30
15983;DHT22;14442;50.196;8.096;2022-11-15T13:14:45;23.30;55.20
15983;DHT22;14442;50.196;8.096;2022-11-15T13:17:24;23.30;55.30
15983;DHT22;14442;50.196;8.096;2022-11-15T13:19:55;23.30;55.00
15983;DHT22;14442;50.196;8.096;2022-11-15T13:22:24;23.30;54.90
15983;DHT22;14442;50.196;8.096;2022-11-15T13:25:15;23.30;54.70
15983;DHT22;14442;50.196;8.096;2022-11-15T13:27:44;23.30;54.80
15983;DHT22;14442;50.196;8.096;2022-11-15T13:30:19;23.30;54.90
15983;DHT22;14442;50.196;8.096;2022-11-15T13:32:47;23.30;55.10
15983;DHT22;14442;50.196;8.096;2022-11-15T13:35:20;23.30;55.30
15983;DHT22;14442;50.196;8.096;2022-11-15T13:37:48;23.30;55.00
15983;DHT22;14442;50.196;8.096;2022-11-15T13:40:20;23.10;54.20
15983;DHT22;14442;50.196;8.096;2022-11-15T13:42:47;23.00;54.00
15983;DHT22;14442;50.196;8.096;2022-11-15T13:45:18;23.00;54.50
15983;DHT22;14442;50.196;8.096;2022-11-15T13:47:51;23.10;55.20
15983;DHT22;14442;50.196;8.096;2022-11-15T13:50:20;23.10;54.80
15983;DHT22;14442;50.196;8.096;2022-11-15T13:52:47;23.10;54.90
15983;DHT22;14442;50.196;8.096;2022-11-15T13:55:17;23.10;54.80
15983;DHT22;14442;50.196;8.096;2022-11-15T13:57:46;23.20;54.70
15983;DHT22;14442;50.196;8.096;2022-11-15T14:00:30;23.10;54.70
15983;DHT22;14442;50.196;8.096;2022-11-15T14:03:06;23.10;54.50
15983;DHT22;14442;50.196;8.096;2022-11-15T14:05:33;23.20;54.70
15983;DHT22;14442;50.196;8.096;2022-11-15T14:08:03;23.10;54.60
15983;DHT22;14442;50.196;8.096;2022-11-15T14:10:32;23.10;54.50
15983;DHT22;14442;50.196;8.096;2022-11-15T14:12:59;23.10;54.70
15983;DHT22;14442;50.196;8.096;2022-11-15T14:15:31;23.10;54.70
15983;DHT22;14442;50.196;8.096;2022-11-15T14:17:58;23.10;54.50
15983;DHT22;14442;50.196;8.096;2022-11-15T14:20:27;23.10;54.80
15983;DHT22;14442;50.196;8.096;2022-11-15T14:22:57;23.10;54.60
15983;DHT22;14442;50.196;8.096;2022-11-15T14:25:25;23.10;54.60
15983;DHT22;14442;50.196;8.096;2022-11-15T14:28:27;23.10;54.50
15983;DHT22;14442;50.196;8.096;2022-11-15T14:30:58;23.10;54.70
15983;DHT22;14442;50.196;8.096;2022-11-15T14:33:28;23.10;54.60
15983;DHT22;14442;50.196;8.096;2022-11-15T14:35:57;23.10;54.30
15983;DHT22;14442;50.196;8.096;2022-11-15T14:38:24;23.10;54.50
15983;DHT22;14442;50.196;8.096;2022-11-15T14:40:51;23.00;54.20
15983;DHT22;14442;50.196;8.096;2022-11-15T14:43:19;23.00;54.00
15983;DHT22;14442;50.196;8.096;2022-11-15T14:45:45;22.90;53.60
15983;DHT22;14442;50.196;8.096;2022-11-15T14:48:14;22.70;53.60
15983;DHT22;14442;50.196;8.096;2022-11-15T14:50:40;22.80;53.90
15983;DHT22;14442;50.196;8.096;2022-11-15T14:53:12;22.80;53.90
15983;DHT22;14442;50.196;8.096;2022-11-15T14:55:38;22.90;54.10
15983;DHT22;14442;50.196;8.096;2022-11-15T14:58:06;22.90;54.00
15983;DHT22;14442;50.196;8.096;2022-11-15T15:00:34;22.90;54.00
15983;DHT22;14442;50.196;8.096;2022-11-15T15:03:01;22.90;53.90
15983;DHT22;14442;50.196;8.096;2022-11-15T15:05:32;22.90;53.90
15983;DHT22;14442;50.196;8.096;2022-11-15T15:07:59;22.90;53.90
15983;DHT22;14442;50.196;8.096;2022-11-15T15:10:27;22.90;53.90
15983;DHT22;14442;50.196;8.096;2022-11-15T15:12:57;22.90;54.00
15983;DHT22;14442;50.196;8.096;2022-11-15T15:15:26;22.90;54.50
15983;DHT22;14442;50.196;8.096;2022-11-15T15:17:52;22.90;54.60
15983;DHT22;14442;50.196;8.096;2022-11-15T15:20:19;22.90;54.00
15983;DHT22;14442;50.196;8.096;2022-11-15T15:22:47;22.90;54.10
15983;DHT22;14442;50.196;8.096;2022-11-15T15:25:21;22.90;53.90
15983;DHT22;14442;50.196;8.096;2022-11-15T15:27:48;22.90;54.00
15983;DHT22;14442;50.196;8.096;2022-11-15T15:30:15;22.90;53.90
15983;DHT22;14442;50.196;8.096;2022-11-15T15:32:42;22.90;54.00
15983;DHT22;14442;50.196;8.096;2022-11-15T15:35:11;22.90;53.80
15983;DHT22;14442;50.196;8.096;2022-11-15T15:37:39;22.90;53.90
15983;DHT22;14442;50.196;8.096;2022-11-15T15:40:13;22.90;53.70
15983;DHT22;14442;50.196;8.096;2022-11-15T15:42:40;22.90;53.50
15983;DHT22;14442;50.196;8.096;2022-11-15T15:45:07;22.90;53.50
15983;DHT22;14442;50.196;8.096;2022-11-15T15:47:34;22.90;53.20
15983;DHT22;14442;50.196;8.096;2022-11-15T15:50:01;23.00;53.00
15983;DHT22;14442;50.196;8.096;2022-11-15T15:52:28;23.10;53.60
15983;DHT22;14442;50.196;8.096;2022-11-15T15:54:55;23.20;53.70
15983;DHT22;14442;50.196;8.096;2022-11-15T15:57:23;23.30;54.80
15983;DHT22;14442;50.196;8.096;2022-11-15T15:59:50;23.40;55.70
15983;DHT22;14442;50.196;8.096;2022-11-15T16:02:16;23.40;55.50
15983;DHT22;14442;50.196;8.096;2022-11-15T16:04:43;23.30;55.70
15983;DHT22;14442;50.196;8.096;2022-11-15T16:07:16;23.30;56.10
15983;DHT22;14442;50.196;8.096;2022-11-15T16:09:43;23.30;56.50